Time;durP1;ratioP1;P1;durP2;ratioP2;P2;SDS_P1;SDS_P2;PMS_P1;PMS_P2;Temp;Humidity;BMP_temperature;BMP_pressure;BME280_temperature;BME280_humidity;BME280_pressure;Samples;Min_cycle;Max_cycle;Signal;HPM_P1;HPM_P2
2022/12/23 00:00:11;;;;;;;20.13;8.23;;;11.50;99.90;;;;;;5076214;28;20266;-69
2022/12/23 00:02:37;;;;;;;14.27;7.50;;;11.50;99.90;;;;;;5075892;28;20658;-69
2022/12/23 00:05:04;;;;;;;12.53;6.87;;;11.50;99.90;;;;;;5094428;28;20175;-70
2022/12/23 00:07:30;;;;;;;14.37;6.70;;;11.50;99.90;;;;;;5094226;28;20240;-70
2022/12/23 00:09:55;;;;;;;15.20;6.20;;;11.50;99.90;;;;;;5093899;28;20642;-71
2022/12/23 00:15:06;;;;;;;11.53;5.87;;;11.50;99.90;;;;;;5093971;28;20594;-70
2022/12/23 00:17:36;;;;;;;13.57;5.17;;;11.50;99.90;;;;;;5093896;28;20635;-69
2022/12/23 00:20:03;;;;;;;11.97;5.47;;;11.50;99.90;;;;;;5093894;28;20176;-70
2022/12/23 00:25:13;;;;;;;9.53;4.27;;;11.60;99.90;;;;;;5094197;28;20600;-70
2022/12/23 00:27:39;;;;;;;11.53;4.60;;;11.60;99.90;;;;;;5092762;28;20199;-70
2022/12/23 00:30:09;;;;;;;14.20;4.73;;;11.60;99.90;;;;;;5075685;28;20183;-69
2022/12/23 00:32:35;;;;;;;12.83;4.60;;;11.60;99.90;;;;;;5093541;28;20219;-69
2022/12/23 00:35:00;;;;;;;5.37;3.80;;;11.60;99.90;;;;;;5093737;28;20212;-70
2022/12/23 00:37:29;;;;;;;7.43;3.00;;;11.60;99.90;;;;;;5093279;28;20258;-70
2022/12/23 00:42:54;;;;;;;10.83;3.37;;;11.60;99.90;;;;;;5093868;28;20217;-70
2022/12/23 00:45:19;;;;;;;11.77;3.97;;;11.60;99.90;;;;;;5093689;28;20175;-70
2022/12/23 00:50:31;;;;;;;14.73;3.90;;;11.60;99.90;;;;;;5093495;28;20274;-70
2022/12/23 00:52:57;;;;;;;11.73;4.40;;;11.70;99.90;;;;;;5093165;28;20186;-69
2022/12/23 00:55:23;;;;;;;8.07;4.00;;;11.70;99.90;;;;;;5075297;28;20222;-70
2022/12/23 00:57:49;;;;;;;14.30;4.33;;;11.60;99.90;;;;;;5093414;28;20536;-70
2022/12/23 01:00:15;;;;;;;11.10;4.40;;;11.60;99.90;;;;;;5093335;28;20172;-69
2022/12/23 01:05:37;;;;;;;11.83;4.47;;;11.80;99.90;;;;;;5093444;28;20178;-70
2022/12/23 01:08:08;;;;;;;11.40;5.03;;;11.60;99.90;;;;;;5093043;28;20254;-70
2022/12/23 01:10:36;;;;;;;12.77;4.97;;;11.70;99.90;;;;;;5093327;28;20172;-70
2022/12/23 01:13:01;;;;;;;11.03;5.30;;;11.60;99.90;;;;;;5093145;28;20179;-69
2022/12/23 01:15:27;;;;;;;13.27;5.33;;;11.60;99.90;;;;;;5093082;28;20217;-69
2022/12/23 01:17:53;;;;;;;13.47;5.40;;;11.60;99.90;;;;;;5075192;28;20178;-70
2022/12/23 01:20:19;;;;;;;9.63;5.00;;;11.60;99.90;;;;;;5092762;28;20176;-70
2022/12/23 01:22:44;;;;;;;15.00;4.90;;;11.70;99.90;;;;;;5093191;28;20502;-69
2022/12/23 01:25:10;;;;;;;12.00;4.57;;;11.70;99.90;;;;;;5093071;28;20213;-69
2022/12/23 01:27:36;;;;;;;13.67;4.80;;;11.70;99.90;;;;;;5074929;28;20290;-70
2022/12/23 01:30:02;;;;;;;15.63;4.87;;;11.60;99.90;;;;;;5093097;28;20176;-69
2022/12/23 01:32:27;;;;;;;11.03;4.43;;;11.60;99.90;;;;;;5071267;28;20298;-69
2022/12/23 01:34:53;;;;;;;10.83;4.60;;;11.50;99.90;;;;;;5072582;28;20608;-70
2022/12/23 01:37:18;;;;;;;11.83;4.90;;;11.50;99.90;;;;;;5073376;28;20177;-70
2022/12/23 01:39:44;;;;;;;14.57;4.60;;;11.40;99.90;;;;;;5075213;28;20654;-69
2022/12/23 01:45:09;;;;;;;11.33;4.67;;;11.40;99.90;;;;;;5076988;28;20274;-69
2022/12/23 01:47:41;;;;;;;11.00;4.50;;;11.40;99.90;;;;;;5076670;28;20173;-70
2022/12/23 01:50:20;;;;;;;11.10;4.30;;;11.40;99.90;;;;;;5076283;28;20172;-70
2022/12/23 01:53:10;;;;;;;10.30;4.20;;;11.40;99.90;;;;;;5076417;28;20528;-69
2022/12/23 01:55:47;;;;;;;10.00;4.10;;;11.40;99.90;;;;;;5076342;28;20215;-70
2022/12/23 01:58:26;;;;;;;9.63;3.77;;;11.50;99.90;;;;;;5076636;28;20222;-69
2022/12/23 02:03:41;;;;;;;8.43;3.43;;;11.50;99.90;;;;;;5076291;28;20175;-69
2022/12/23 02:09:19;;;;;;;9.03;3.20;;;11.50;99.90;;;;;;5076582;28;20662;-69
2022/12/23 02:12:23;;;;;;;9.97;3.50;;;11.50;99.90;;;;;;5076214;28;20260;-69
2022/12/23 02:18:09;;;;;;;10.97;3.43;;;11.50;99.90;;;;;;5075886;28;20184;-68
2022/12/23 02:20:46;;;;;;;9.03;3.50;;;11.50;99.90;;;;;;5075665;28;20168;-69
2022/12/23 02:23:31;;;;;;;9.73;3.43;;;11.50;99.90;;;;;;5076036;28;20160;-69
2022/12/23 02:25:56;;;;;;;14.70;4.07;;;11.50;99.90;;;;;;5074740;28;20195;-70
2022/12/23 02:28:43;;;;;;;8.17;4.00;;;11.40;99.90;;;;;;5075668;28;20247;-69
2022/12/23 02:31:21;;;;;;;10.20;3.67;;;11.50;99.90;;;;;;5075786;28;20168;-68
2022/12/23 02:34:18;;;;;;;9.83;4.03;;;11.50;99.90;;;;;;5095771;28;20187;-69
2022/12/23 02:37:07;;;;;;;14.03;4.57;;;11.40;99.90;;;;;;5095914;28;20193;-68
2022/12/23 02:40:05;;;;;;;9.20;4.10;;;11.40;99.90;;;;;;5095953;28;20182;-68
2022/12/23 02:42:43;;;;;;;9.53;4.27;;;11.40;99.90;;;;;;5095793;28;20168;-68
2022/12/23 02:45:19;;;;;;;10.67;4.07;;;11.40;99.90;;;;;;5095854;28;20160;-69
2022/12/23 02:48:04;;;;;;;11.70;4.03;;;11.30;99.90;;;;;;5095501;28;20179;-69
2022/12/23 02:50:34;;;;;;;9.63;4.10;;;11.30;99.90;;;;;;5094730;28;20172;-69
2022/12/23 02:53:07;;;;;;;11.33;3.57;;;11.30;99.90;;;;;;5095613;28;20183;-68
2022/12/23 02:55:37;;;;;;;9.07;3.97;;;11.30;99.90;;;;;;5095450;28;20211;-68
2022/12/23 02:58:08;;;;;;;7.30;3.57;;;11.20;99.90;;;;;;5095593;28;20204;-69
2022/12/23 03:00:36;;;;;;;15.03;3.70;;;11.20;99.90;;;;;;5095402;28;20741;-68
2022/12/23 03:03:01;;;;;;;9.07;3.13;;;11.10;99.90;;;;;;5095065;28;20179;-68
2022/12/23 03:05:35;;;;;;;7.77;3.60;;;11.10;99.90;;;;;;5095498;28;20180;-69
2022/12/23 03:08:05;;;;;;;8.73;3.50;;;11.10;99.90;;;;;;5095433;28;20177;-69
2022/12/23 03:10:33;;;;;;;7.03;3.03;;;11.10;99.90;;;;;;5095467;28;20178;-69
2022/12/23 03:13:47;;;;;;;7.27;3.37;;;11.10;99.90;;;;;;5095250;28;20222;-69
2022/12/23 03:16:57;;;;;;;5.87;3.13;;;11.10;99.90;;;;;;5012828;28;20313;-68
2022/12/23 03:19:43;;;;;;;8.63;3.53;;;11.30;99.90;;;;;;5013042;28;20241;-69
2022/12/23 03:22:14;;;;;;;8.77;3.77;;;11.20;99.90;;;;;;4973836;28;20202;-69
2022/12/23 03:24:52;;;;;;;5.90;3.50;;;11.20;99.90;;;;;;5012887;28;20190;-69
2022/12/23 03:27:34;;;;;;;5.07;3.73;;;11.20;99.90;;;;;;4996467;28;20236;-69
2022/12/23 03:30:10;;;;;;;10.83;4.30;;;11.20;99.90;;;;;;4996514;28;20244;-68
2022/12/23 03:32:45;;;;;;;8.50;4.57;;;11.10;99.90;;;;;;5012198;28;20256;-69
2022/12/23 03:35:15;;;;;;;7.83;4.23;;;11.20;99.90;;;;;;5012644;28;20218;-69
2022/12/23 03:37:45;;;;;;;7.20;4.70;;;11.30;99.90;;;;;;5012823;28;20302;-68
2022/12/23 03:40:40;;;;;;;9.43;4.67;;;11.30;99.90;;;;;;5012638;28;20194;-69
2022/12/23 03:43:17;;;;;;;7.83;4.67;;;11.30;99.90;;;;;;5012689;28;20735;-68
2022/12/23 03:45:52;;;;;;;9.10;5.50;;;11.30;99.90;;;;;;5012304;28;20178;-69
2022/12/23 03:48:27;;;;;;;7.83;5.23;;;11.40;99.90;;;;;;5012622;28;20181;-68
2022/12/23 03:50:58;;;;;;;11.20;5.27;;;11.40;99.90;;;;;;5012470;28;20232;-69
2022/12/23 03:53:32;;;;;;;12.77;5.47;;;11.30;99.90;;;;;;5071428;28;20176;-69
2022/12/23 03:56:09;;;;;;;9.27;5.13;;;11.30;99.90;;;;;;5072976;28;20687;-69
2022/12/23 03:59:07;;;;;;;12.23;4.90;;;11.30;99.90;;;;;;5074225;28;20252;-69
2022/12/23 04:01:54;;;;;;;10.50;5.13;;;11.30;99.90;;;;;;5061396;28;20643;-69
2022/12/23 04:04:37;;;;;;;8.40;4.80;;;11.30;99.90;;;;;;5073919;28;20647;-69
2022/12/23 04:07:09;;;;;;;11.00;4.80;;;11.40;99.90;;;;;;5073891;28;20184;-69
2022/12/23 04:09:35;;;;;;;8.83;4.83;;;11.40;99.90;;;;;;5074047;28;20183;-69
2022/12/23 04:12:01;;;;;;;7.13;4.60;;;11.40;99.90;;;;;;5073580;28;20222;-69
2022/12/23 04:14:27;;;;;;;8.23;4.83;;;11.40;99.90;;;;;;5073428;28;20223;-68
2022/12/23 04:16:56;;;;;;;10.17;5.07;;;11.40;99.90;;;;;;5073622;28;20574;-68
2022/12/23 04:19:21;;;;;;;8.90;4.50;;;11.40;99.90;;;;;;5073190;28;20186;-69
2022/12/23 04:21:47;;;;;;;8.73;4.27;;;11.40;99.90;;;;;;5073245;28;20271;-68
2022/12/23 04:24:12;;;;;;;10.73;5.10;;;11.30;99.90;;;;;;5073534;28;20230;-68
2022/12/23 04:26:38;;;;;;;9.87;5.00;;;11.30;99.90;;;;;;5073218;28;20234;-69
2022/12/23 04:29:04;;;;;;;9.67;4.90;;;11.30;99.90;;;;;;5072989;28;20601;-69
2022/12/23 04:31:30;;;;;;;8.67;4.47;;;11.30;99.90;;;;;;5073972;28;20259;-69
2022/12/23 04:33:56;;;;;;;8.27;4.70;;;11.30;99.90;;;;;;5093527;28;20268;-68
2022/12/23 04:36:21;;;;;;;8.73;5.67;;;11.30;99.90;;;;;;5093924;28;20198;-68
2022/12/23 04:38:47;;;;;;;10.40;5.67;;;11.20;99.90;;;;;;5075337;28;20175;-69
2022/12/23 04:41:13;;;;;;;12.73;6.30;;;11.20;99.90;;;;;;5075131;28;20174;-69
2022/12/23 04:43:38;;;;;;;11.97;5.97;;;11.20;99.90;;;;;;5074669;28;20233;-69
2022/12/23 04:46:04;;;;;;;15.37;6.63;;;11.20;99.90;;;;;;5093062;28;20203;-69
2022/12/23 04:48:30;;;;;;;14.13;7.63;;;11.20;99.90;;;;;;5093399;28;20195;-69
2022/12/23 04:50:55;;;;;;;12.77;7.13;;;11.20;99.90;;;;;;5093301;28;20209;-69
2022/12/23 04:53:21;;;;;;;11.20;8.07;;;11.20;99.90;;;;;;5093212;28;20164;-69
2022/12/23 04:55:50;;;;;;;12.97;7.63;;;11.20;99.90;;;;;;5074654;28;20619;-69
2022/12/23 04:58:16;;;;;;;11.93;7.83;;;11.20;99.90;;;;;;5093095;28;20182;-68
2022/12/23 05:00:41;;;;;;;10.83;7.93;;;11.20;99.90;;;;;;5093229;28;20180;-69
2022/12/23 05:03:07;;;;;;;11.97;7.73;;;11.30;99.90;;;;;;5093124;28;20615;-69
2022/12/23 05:05:33;;;;;;;14.07;8.60;;;11.30;99.90;;;;;;5093119;28;20209;-70
2022/12/23 05:08:04;;;;;;;13.90;8.53;;;11.30;99.90;;;;;;5092949;28;20537;-70
2022/12/23 05:10:29;;;;;;;13.33;7.57;;;11.20;99.90;;;;;;5092614;28;20163;-69
2022/12/23 05:12:55;;;;;;;15.57;8.07;;;11.20;99.90;;;;;;5092671;28;20222;-69
2022/12/23 05:15:20;;;;;;;18.33;7.87;;;11.20;99.90;;;;;;5096798;28;20213;-69
2022/12/23 05:17:46;;;;;;;16.90;7.50;;;11.20;99.90;;;;;;5097051;28;20673;-68
2022/12/23 05:20:12;;;;;;;12.40;7.37;;;11.20;99.90;;;;;;5097128;28;20175;-69
2022/12/23 05:22:37;;;;;;;11.07;7.00;;;11.30;99.90;;;;;;5096987;28;20646;-69
2022/12/23 05:25:03;;;;;;;10.70;6.60;;;11.30;99.90;;;;;;5096859;28;20245;-68
2022/12/23 05:27:29;;;;;;;16.13;5.93;;;11.30;99.90;;;;;;5096443;28;20164;-68
2022/12/23 05:29:54;;;;;;;11.50;6.10;;;11.30;99.90;;;;;;5096964;28;20179;-69
2022/12/23 05:32:20;;;;;;;13.50;5.90;;;11.30;99.90;;;;;;5096507;28;20682;-69
2022/12/23 05:34:46;;;;;;;10.43;6.10;;;11.30;99.90;;;;;;5096844;28;20207;-68
2022/12/23 05:37:11;;;;;;;12.33;6.50;;;11.30;99.90;;;;;;5078659;28;20214;-69
2022/12/23 05:39:37;;;;;;;15.17;5.63;;;11.30;99.90;;;;;;5096790;28;20270;-69
2022/12/23 05:42:02;;;;;;;11.40;6.27;;;11.30;99.90;;;;;;5095985;28;20186;-68
2022/12/23 05:44:28;;;;;;;14.53;5.93;;;11.30;99.90;;;;;;5096424;28;20172;-68
2022/12/23 05:46:54;;;;;;;11.37;6.17;;;11.20;99.90;;;;;;5096382;28;20180;-69
2022/12/23 05:49:19;;;;;;;12.10;6.07;;;11.30;99.90;;;;;;5096381;28;20642;-68
2022/12/23 05:51:45;;;;;;;11.73;5.87;;;11.30;99.90;;;;;;5096543;28;20168;-69
2022/12/23 05:54:10;;;;;;;12.83;6.17;;;11.30;99.90;;;;;;5095822;28;20200;-70
2022/12/23 05:56:36;;;;;;;13.30;6.20;;;11.30;99.90;;;;;;5095853;28;20184;-68
2022/12/23 05:59:02;;;;;;;11.10;6.40;;;11.40;99.90;;;;;;5096283;28;20179;-69
2022/12/23 06:01:27;;;;;;;9.17;6.03;;;11.40;99.90;;;;;;5095830;28;20184;-69
2022/12/23 06:03:53;;;;;;;12.27;6.77;;;11.40;99.90;;;;;;5096098;28;20186;-69
2022/12/23 06:06:18;;;;;;;8.73;6.40;;;11.40;99.90;;;;;;5077740;28;20661;-69
2022/12/23 06:08:44;;;;;;;12.50;7.23;;;11.30;99.90;;;;;;5095833;28;20179;-69
2022/12/23 06:11:11;;;;;;;12.30;7.23;;;11.30;99.90;;;;;;5077440;28;20685;-69
2022/12/23 06:13:37;;;;;;;10.03;6.37;;;11.40;99.90;;;;;;5096095;28;20260;-69
2022/12/23 06:16:03;;;;;;;11.03;6.57;;;11.40;99.90;;;;;;5095312;28;20282;-69
2022/12/23 06:18:28;;;;;;;9.67;6.67;;;11.30;99.90;;;;;;5095759;28;20595;-69
2022/12/23 06:20:54;;;;;;;12.13;6.40;;;11.40;99.90;;;;;;5095575;28;20167;-69
2022/12/23 06:23:19;;;;;;;11.43;6.50;;;11.40;99.90;;;;;;5095407;28;20160;-70
2022/12/23 06:25:45;;;;;;;9.50;5.63;;;11.20;99.90;;;;;;5094537;28;20647;-69
2022/12/23 06:28:11;;;;;;;14.13;6.40;;;11.20;99.90;;;;;;5077215;28;20168;-69
2022/12/23 06:30:36;;;;;;;9.43;6.17;;;11.20;99.90;;;;;;5095192;28;20168;-70
2022/12/23 06:33:02;;;;;;;11.17;6.17;;;11.20;99.90;;;;;;5094685;28;20230;-69
2022/12/23 06:35:27;;;;;;;15.53;6.43;;;11.20;99.90;;;;;;5094995;28;20234;-69
2022/12/23 06:37:53;;;;;;;10.83;6.47;;;11.20;99.90;;;;;;5095214;28;20194;-68
2022/12/23 06:40:19;;;;;;;18.47;6.30;;;11.20;99.90;;;;;;5094509;28;20191;-69
2022/12/23 06:42:44;;;;;;;12.70;6.77;;;11.30;99.90;;;;;;5095311;28;20499;-69
2022/12/23 06:45:10;;;;;;;13.57;6.10;;;11.30;99.90;;;;;;5095087;28;20203;-70
2022/12/23 06:47:36;;;;;;;13.47;6.63;;;11.30;99.90;;;;;;5094845;28;20168;-69
2022/12/23 06:50:02;;;;;;;13.03;6.73;;;11.30;99.90;;;;;;5095101;28;20187;-69
2022/12/23 06:52:27;;;;;;;15.13;6.73;;;11.30;99.90;;;;;;5094579;28;20712;-69
2022/12/23 06:54:53;;;;;;;12.20;6.20;;;11.10;99.90;;;;;;5094297;28;20215;-69
2022/12/23 06:57:19;;;;;;;16.80;6.67;;;11.10;99.90;;;;;;5094696;28;20187;-69
2022/12/23 06:59:44;;;;;;;12.97;6.60;;;11.10;99.90;;;;;;5097681;28;20187;-69
2022/12/23 07:02:11;;;;;;;12.17;7.07;;;11.10;99.90;;;;;;5096535;28;20167;-69
2022/12/23 07:04:36;;;;;;;13.73;6.83;;;11.20;99.90;;;;;;5104321;28;20186;-70
2022/12/23 07:07:02;;;;;;;17.20;7.63;;;11.20;99.90;;;;;;5099440;28;20179;-69
2022/12/23 07:09:27;;;;;;;13.33;7.40;;;11.40;99.90;;;;;;5093956;28;20176;-70
2022/12/23 07:11:53;;;;;;;15.50;7.07;;;11.40;99.90;;;;;;5094544;28;20642;-69
2022/12/23 07:14:19;;;;;;;19.83;8.03;;;11.30;99.90;;;;;;5094354;28;20206;-70
2022/12/23 07:16:45;;;;;;;13.97;7.57;;;11.40;99.90;;;;;;5099166;28;20231;-69
2022/12/23 07:19:10;;;;;;;16.47;7.97;;;11.40;99.90;;;;;;5114692;28;20220;-69
2022/12/23 07:21:37;;;;;;;16.93;7.90;;;11.40;99.90;;;;;;5114114;28;20517;-69
2022/12/23 07:24:03;;;;;;;15.40;8.10;;;11.40;99.90;;;;;;5105185;28;20179;-70
2022/12/23 07:26:29;;;;;;;17.73;7.20;;;11.50;99.90;;;;;;5113948;28;20268;-69
2022/12/23 07:28:54;;;;;;;14.80;7.60;;;11.50;99.90;;;;;;5113931;28;20658;-70
2022/12/23 07:31:20;;;;;;;12.37;6.53;;;11.50;99.90;;;;;;5114594;28;20186;-70
2022/12/23 07:33:46;;;;;;;13.70;7.07;;;11.40;99.90;;;;;;5111172;28;20238;-70
2022/12/23 07:36:11;;;;;;;13.47;7.10;;;11.40;99.90;;;;;;5092521;28;20207;-69
2022/12/23 07:38:37;;;;;;;20.80;7.93;;;11.50;99.90;;;;;;5093031;28;20175;-71
2022/12/23 07:41:03;;;;;;;18.10;7.50;;;11.50;99.90;;;;;;5103365;28;20673;-69
2022/12/23 07:43:28;;;;;;;16.17;6.90;;;11.50;99.90;;;;;;5099995;28;20176;-70
2022/12/23 07:45:54;;;;;;;17.80;6.87;;;11.40;99.90;;;;;;5109779;28;20261;-69
2022/12/23 07:48:19;;;;;;;17.63;6.90;;;11.40;99.90;;;;;;5106173;28;20638;-69
2022/12/23 07:50:45;;;;;;;13.13;6.30;;;11.50;99.90;;;;;;5093337;28;20269;-69
2022/12/23 07:53:11;;;;;;;15.30;7.30;;;11.50;99.90;;;;;;5112697;28;20171;-70
2022/12/23 07:55:36;;;;;;;14.57;7.33;;;11.50;99.90;;;;;;5101949;28;20296;-70
2022/12/23 07:58:02;;;;;;;15.67;7.13;;;11.50;99.90;;;;;;5093239;28;20195;-69
2022/12/23 08:00:28;;;;;;;16.13;7.50;;;11.50;99.90;;;;;;5093161;28;20517;-69
2022/12/23 08:02:53;;;;;;;14.97;6.90;;;11.50;99.90;;;;;;5092854;28;20171;-69
2022/12/23 08:05:19;;;;;;;12.27;6.47;;;11.60;99.90;;;;;;5092621;28;20182;-71
2022/12/23 08:07:45;;;;;;;12.23;6.73;;;11.50;99.90;;;;;;5092324;28;20574;-69
2022/12/23 08:10:11;;;;;;;12.93;6.00;;;11.50;99.90;;;;;;5092681;28;20176;-70
2022/12/23 08:12:37;;;;;;;11.60;6.50;;;11.40;99.90;;;;;;5093092;28;20271;-69
2022/12/23 08:15:03;;;;;;;15.60;6.83;;;11.40;99.90;;;;;;5092160;28;20757;-70
2022/12/23 08:17:29;;;;;;;12.57;6.10;;;11.40;99.90;;;;;;5092661;28;20164;-69
2022/12/23 08:19:55;;;;;;;13.13;6.27;;;11.40;99.90;;;;;;5112369;28;20173;-69
2022/12/23 08:22:21;;;;;;;12.13;5.50;;;11.30;99.90;;;;;;5112179;28;20168;-70
2022/12/23 08:24:47;;;;;;;11.73;5.50;;;11.30;99.90;;;;;;5113283;28;20191;-70
2022/12/23 08:27:13;;;;;;;11.83;5.77;;;11.20;99.90;;;;;;5113124;28;20203;-70
2022/12/23 08:29:39;;;;;;;13.10;6.00;;;11.30;99.90;;;;;;5110578;28;20200;-70
2022/12/23 08:32:05;;;;;;;15.83;6.33;;;11.30;99.90;;;;;;5093993;28;20258;-70
2022/12/23 08:34:31;;;;;;;10.37;6.23;;;11.40;99.90;;;;;;5097605;28;20935;-70
2022/12/23 08:36:57;;;;;;;12.10;5.90;;;11.50;99.90;;;;;;5107032;28;20209;-70
2022/12/23 08:39:23;;;;;;;13.30;6.23;;;11.50;99.90;;;;;;5092306;28;20258;-71
2022/12/23 08:41:48;;;;;;;16.83;6.03;;;11.50;99.90;;;;;;5093013;28;20220;-70
2022/12/23 08:44:14;;;;;;;13.83;5.67;;;11.60;99.90;;;;;;5093129;28;20179;-70
2022/12/23 08:46:41;;;;;;;12.90;5.50;;;11.60;99.90;;;;;;5102772;28;20260;-70
2022/12/23 08:49:07;;;;;;;11.00;5.40;;;11.60;99.90;;;;;;5106403;28;20183;-71
2022/12/23 08:51:34;;;;;;;14.47;5.50;;;11.60;99.90;;;;;;5100379;28;20180;-71
2022/12/23 08:54:01;;;;;;;9.90;5.27;;;11.50;99.90;;;;;;5092731;28;20164;-70
2022/12/23 08:56:29;;;;;;;11.90;5.37;;;11.50;99.90;;;;;;5098421;28;20183;-70
2022/12/23 08:58:55;;;;;;;8.77;4.60;;;11.60;99.90;;;;;;5107233;28;20196;-71
2022/12/23 09:01:25;;;;;;;10.60;4.90;;;11.60;99.90;;;;;;5092278;28;20274;-70
2022/12/23 09:03:51;;;;;;;7.80;4.10;;;11.50;99.90;;;;;;5092316;28;20163;-70
2022/12/23 09:06:25;;;;;;;9.53;4.70;;;11.40;99.90;;;;;;5108515;28;20232;-70
2022/12/23 09:08:52;;;;;;;10.37;5.20;;;11.40;99.90;;;;;;5112140;28;20561;-70
2022/12/23 09:11:21;;;;;;;8.33;4.60;;;11.40;99.90;;;;;;5112614;28;20234;-70
2022/12/23 09:13:47;;;;;;;9.53;4.77;;;11.30;99.90;;;;;;5111811;28;20171;-70
2022/12/23 09:16:13;;;;;;;6.83;4.40;;;11.40;99.90;;;;;;5112745;28;20219;-70
2022/12/23 09:18:40;;;;;;;12.53;4.77;;;11.30;99.90;;;;;;5108584;28;20258;-71
2022/12/23 09:21:09;;;;;;;8.13;4.27;;;11.30;99.90;;;;;;5091940;28;20203;-70
2022/12/23 09:23:35;;;;;;;8.00;4.57;;;11.30;99.90;;;;;;5091878;28;20172;-70
2022/12/23 09:26:03;;;;;;;12.63;5.60;;;11.20;99.90;;;;;;5092239;28;20188;-69
2022/12/23 09:28:29;;;;;;;10.73;5.10;;;11.20;99.90;;;;;;5092309;28;20266;-69
2022/12/23 09:30:54;;;;;;;9.40;5.50;;;11.20;99.90;;;;;;5092257;28;20191;-69
2022/12/23 09:33:20;;;;;;;11.10;5.70;;;11.20;99.90;;;;;;5092121;28;20339;-69
2022/12/23 09:35:46;;;;;;;11.67;5.80;;;11.20;99.90;;;;;;5098705;28;20211;-70
2022/12/23 09:38:11;;;;;;;7.50;6.40;;;11.10;99.90;;;;;;5111814;28;20174;-69
2022/12/23 09:40:39;;;;;;;11.43;6.53;;;11.10;99.90;;;;;;5112852;28;20268;-68
2022/12/23 09:43:23;;;;;;;11.13;5.40;;;11.10;99.90;;;;;;5112251;28;20212;-68
2022/12/23 09:46:22;;;;;;;9.23;5.77;;;11.10;99.90;;;;;;5112687;28;20202;-67
2022/12/23 09:49:13;;;;;;;9.97;6.33;;;11.10;99.90;;;;;;5009383;28;20280;-70
2022/12/23 09:51:39;;;;;;;8.93;6.60;;;11.10;99.90;;;;;;5009960;28;20194;-69
2022/12/23 09:54:24;;;;;;;7.67;6.13;;;11.10;99.90;;;;;;5008602;28;20174;-69
2022/12/23 09:56:51;;;;;;;9.40;6.37;;;11.10;99.90;;;;;;5009686;28;20285;-69
2022/12/23 09:59:38;;;;;;;11.03;7.67;;;11.10;99.90;;;;;;4990873;28;20401;-70
2022/12/23 10:02:27;;;;;;;6.90;5.73;;;11.00;99.90;;;;;;5013165;28;20261;-69
2022/12/23 10:05:13;;;;;;;9.23;6.50;;;10.90;99.90;;;;;;5012151;28;20183;-68
2022/12/23 10:07:46;;;;;;;8.23;6.90;;;11.00;99.90;;;;;;5012802;28;20298;-68
2022/12/23 10:10:24;;;;;;;7.17;6.47;;;10.90;99.90;;;;;;5012073;28;20444;-67
2022/12/23 10:12:52;;;;;;;8.97;6.87;;;10.80;99.90;;;;;;4997569;28;20177;-68
2022/12/23 10:15:32;;;;;;;10.50;7.90;;;10.90;99.90;;;;;;5013327;28;20217;-69
2022/12/23 10:18:06;;;;;;;8.57;7.63;;;10.90;99.90;;;;;;5013353;28;20634;-69
2022/12/23 10:20:58;;;;;;;12.80;8.03;;;11.00;99.90;;;;;;5013078;28;20170;-69
2022/12/23 10:23:31;;;;;;;14.20;9.83;;;11.00;99.90;;;;;;5017494;28;20187;-68
2022/12/23 10:25:57;;;;;;;13.37;9.37;;;10.90;99.90;;;;;;5095547;28;20245;-69
2022/12/23 10:28:23;;;;;;;10.63;8.90;;;10.90;99.90;;;;;;5094902;28;20222;-68
2022/12/23 10:31:04;;;;;;;12.13;9.23;;;10.90;99.90;;;;;;5095139;28;20176;-71
2022/12/23 10:33:43;;;;;;;11.63;9.60;;;10.90;99.90;;;;;;5094744;28;20245;-68
2022/12/23 10:36:19;;;;;;;12.73;8.83;;;10.90;99.90;;;;;;5095585;28;20317;-68
2022/12/23 10:39:12;;;;;;;12.30;9.40;;;10.90;99.90;;;;;;5095135;28;20172;-69
2022/12/23 10:42:07;;;;;;;13.17;9.90;;;11.00;99.90;;;;;;5094875;28;20266;-69
2022/12/23 10:45:08;;;;;;;11.73;9.97;;;11.00;99.90;;;;;;5095012;28;20172;-69
2022/12/23 10:48:02;;;;;;;10.30;8.70;;;11.10;99.90;;;;;;5078049;28;20185;-70
2022/12/23 10:50:31;;;;;;;11.67;9.63;;;11.10;99.90;;;;;;5094378;28;20265;-69
2022/12/23 10:52:59;;;;;;;11.83;10.00;;;11.10;99.90;;;;;;5094712;28;20194;-69
2022/12/23 10:55:29;;;;;;;11.57;9.20;;;11.10;99.90;;;;;;5095044;28;20227;-68
2022/12/23 10:58:00;;;;;;;10.93;9.83;;;11.10;99.90;;;;;;5094496;28;20168;-69
2022/12/23 11:00:26;;;;;;;26.20;20.43;;;11.10;99.90;;;;;;5094252;28;20647;-69
2022/12/23 11:03:29;;;;;;;8.60;7.70;;;11.10;99.90;;;;;;5094228;28;20267;-69
2022/12/23 11:05:56;;;;;;;10.63;8.63;;;11.10;99.90;;;;;;5094981;28;20164;-70
2022/12/23 11:08:25;;;;;;;9.73;8.73;;;11.10;99.90;;;;;;5094591;28;20195;-69
2022/12/23 11:10:51;;;;;;;9.77;7.20;;;11.10;99.90;;;;;;5094419;28;20170;-69
2022/12/23 11:13:44;;;;;;;8.17;7.30;;;11.10;99.90;;;;;;5093252;28;20632;-68
2022/12/23 11:16:23;;;;;;;9.07;7.57;;;11.10;99.90;;;;;;5089841;28;20310;-69
2022/12/23 11:19:01;;;;;;;10.20;8.20;;;11.10;99.90;;;;;;5094265;28;20171;-68
2022/12/23 11:21:29;;;;;;;15.73;14.23;;;11.10;99.90;;;;;;5094369;28;20237;-69
2022/12/23 11:24:16;;;;;;;9.87;8.97;;;11.20;99.90;;;;;;5093718;28;20627;-69
2022/12/23 11:26:44;;;;;;;7.90;7.10;;;11.30;99.90;;;;;;5094460;28;20160;-69
2022/12/23 11:29:17;;;;;;;7.37;6.67;;;11.40;99.90;;;;;;5093794;28;20168;-69
2022/12/23 11:31:43;;;;;;;7.17;6.53;;;11.40;99.90;;;;;;5094017;28;20513;-69
2022/12/23 11:34:24;;;;;;;6.47;5.47;;;11.30;99.90;;;;;;5094180;28;20186;-68
2022/12/23 11:36:58;;;;;;;11.10;10.10;;;11.30;99.90;;;;;;5093724;28;20171;-69
2022/12/23 11:39:32;;;;;;;8.73;7.00;;;11.30;99.90;;;;;;5093295;28;20182;-69
2022/12/23 11:42:10;;;;;;;8.13;6.03;;;11.30;99.90;;;;;;5094383;28;20225;-69
2022/12/23 11:44:43;;;;;;;5.83;4.87;;;11.40;99.90;;;;;;5094267;28;20171;-69
2022/12/23 11:47:20;;;;;;;5.00;4.50;;;11.50;99.90;;;;;;5093267;28;20199;-68
2022/12/23 11:49:52;;;;;;;4.00;3.67;;;11.60;99.90;;;;;;5094010;28;20646;-69
2022/12/23 11:52:20;;;;;;;5.20;3.70;;;11.70;99.90;;;;;;5093592;28;20174;-69
2022/12/23 11:55:16;;;;;;;3.53;3.27;;;11.80;99.90;;;;;;5093360;28;20208;-69
2022/12/23 11:57:47;;;;;;;4.13;3.83;;;12.00;99.90;;;;;;5087139;28;20302;-69
2022/12/23 12:00:27;;;;;;;4.33;3.93;;;12.10;99.90;;;;;;5093505;28;20265;-69
2022/12/23 12:02:59;;;;;;;3.97;3.57;;;12.10;99.90;;;;;;5093253;28;20623;-70
2022/12/23 12:05:35;;;;;;;3.83;3.63;;;12.20;99.90;;;;;;5093858;28;20217;-69
2022/12/23 12:08:05;;;;;;;4.40;4.00;;;12.30;99.90;;;;;;5093501;28;20167;-70
2022/12/23 12:10:34;;;;;;;4.90;3.50;;;12.40;99.90;;;;;;5092969;28;20210;-70
2022/12/23 12:13:19;;;;;;;3.43;3.13;;;12.50;99.90;;;;;;5092978;28;20168;-69
2022/12/23 12:16:03;;;;;;;3.30;3.10;;;12.50;99.90;;;;;;5093943;28;20246;-71
2022/12/23 12:18:30;;;;;;;3.17;2.87;;;12.60;99.90;;;;;;5092576;28;20202;-70
2022/12/23 12:21:02;;;;;;;3.33;3.13;;;12.70;99.90;;;;;;5093199;28;20180;-69
2022/12/23 12:23:40;;;;;;;3.13;2.83;;;12.80;99.90;;;;;;5093144;28;20267;-69
2022/12/23 12:26:25;;;;;;;10.60;9.53;;;12.90;99.90;;;;;;5093315;28;20179;-70
2022/12/23 12:28:59;;;;;;;22.73;17.43;;;13.10;99.90;;;;;;5092563;28;20168;-70
2022/12/23 12:31:45;;;;;;;5.20;4.50;;;13.20;99.90;;;;;;5093285;28;20201;-70
2022/12/23 12:34:30;;;;;;;9.63;8.80;;;13.20;99.90;;;;;;5052714;28;20713;-71
2022/12/23 12:37:19;;;;;;;5.23;4.83;;;13.30;99.90;;;;;;5052488;28;20273;-70
2022/12/23 12:40:02;;;;;;;3.90;3.40;;;13.40;99.90;;;;;;5052898;28;20176;-70
2022/12/23 12:42:40;;;;;;;2.90;2.70;;;13.50;99.90;;;;;;5052462;28;20174;-70
2022/12/23 12:45:08;;;;;;;2.40;2.20;;;13.60;99.90;;;;;;5052740;28;20276;-71
2022/12/23 12:48:04;;;;;;;4.87;4.57;;;13.60;99.90;;;;;;5052502;28;20169;-71
2022/12/23 12:50:38;;;;;;;3.03;2.87;;;13.70;99.90;;;;;;5052206;28;20176;-71
2022/12/23 12:53:14;;;;;;;2.63;2.10;;;13.80;99.90;;;;;;5052716;28;20248;-71
2022/12/23 12:55:45;;;;;;;2.37;2.10;;;13.90;99.90;;;;;;5052703;28;20723;-71
2022/12/23 12:58:22;;;;;;;3.43;3.13;;;13.90;99.90;;;;;;5052235;28;20171;-70
2022/12/23 13:00:53;;;;;;;3.03;2.73;;;14.00;99.90;;;;;;5051317;28;20579;-70
2022/12/23 13:03:28;;;;;;;1.67;1.23;;;14.00;99.90;;;;;;5052418;28;20173;-70
2022/12/23 13:06:12;;;;;;;1.40;1.30;;;14.00;99.90;;;;;;5052314;28;20169;-70
2022/12/23 13:08:59;;;;;;;1.83;1.40;;;14.00;99.90;;;;;;5052591;28;20188;-71
2022/12/23 13:11:43;;;;;;;2.13;1.43;;;14.10;99.90;;;;;;5052021;28;20180;-71
2022/12/23 13:14:32;;;;;;;19.03;13.30;;;14.10;99.90;;;;;;5052133;28;20161;-70
2022/12/23 13:17:11;;;;;;;3.73;3.40;;;14.10;99.90;;;;;;5052377;28;20181;-70
2022/12/23 13:19:39;;;;;;;10.97;10.00;;;14.10;99.90;;;;;;5052329;28;20519;-70
2022/12/23 13:22:13;;;;;;;8.07;7.33;;;14.20;99.90;;;;;;5052051;28;20169;-71
2022/12/23 13:25:03;;;;;;;3.10;2.87;;;14.20;99.90;;;;;;5052201;28;20619;-70
2022/12/23 13:28:17;;;;;;;2.30;1.63;;;14.20;99.90;;;;;;5052178;28;20219;-69